Terminal Aerodrome Forecast
Issued by NWS

Home | Current Version | Previous Version | Text Only | Print | Product List | Glossary On
Versions: 1 2 3 4 5 6 7 8 9 10 11 12
000
FTUS46 KPDT 010500
TAFPSC
TAF
KPSC 010528Z 0106/0206 VRB05KT P6SM SCT150
     FM012100 31005KT P6SM SCT150 BKN200
     FM020500 VRB05KT P6SM BKN150 OVC200=

USA.gov is the U.S. government's official web portal to all federal, state and local government web resources and services.